createdAt,value
2023-03-01T06:05:40.492Z,26.38
2023-03-01T06:08:44.192Z,25.00
2023-03-01T06:11:47.701Z,24.73
2023-03-01T06:14:50.921Z,26.53
2023-03-01T06:17:56.639Z,24.38
2023-03-01T06:21:06.724Z,27.83
2023-03-01T06:24:10.314Z,27.33
2023-03-01T06:27:13.616Z,27.77
2023-03-01T06:30:19.272Z,24.83
2023-03-01T06:33:24.600Z,27.35
2023-03-01T06:36:31.025Z,25.40
2023-03-01T06:39:36.179Z,26.80
2023-03-01T06:42:41.120Z,26.05
2023-03-01T06:45:44.453Z,24.57
2023-03-01T06:48:48.684Z,26.08
2023-03-01T06:51:53.244Z,26.02
2023-03-01T06:54:57.186Z,26.40
2023-03-01T06:58:01.875Z,25.70
2023-03-01T07:01:11.415Z,24.13
2023-03-01T07:04:15.510Z,25.05
2023-03-01T07:07:21.135Z,24.88
2023-03-01T07:10:25.651Z,28.02
2023-03-01T07:13:29.247Z,26.58
2023-03-01T07:16:32.969Z,24.93
2023-03-01T07:19:36.273Z,24.67
2023-03-01T07:22:43.571Z,29.23
2023-03-01T07:25:46.779Z,22.92
2023-03-01T07:28:49.871Z,26.25
2023-03-01T07:31:53.988Z,26.67
2023-03-01T07:34:58.613Z,21.08
2023-03-01T07:38:03.329Z,26.70
2023-03-01T07:41:08.102Z,21.73
2023-03-01T07:44:11.813Z,25.75
2023-03-01T07:47:16.330Z,20.17
2023-03-01T07:50:21.780Z,22.08
2023-03-01T07:53:26.263Z,23.00
2023-03-01T07:56:30.063Z,26.05
2023-03-01T07:59:33.662Z,24.13
2023-03-01T08:02:36.826Z,27.03
2023-03-01T08:05:40.094Z,19.13
2023-03-01T08:08:48.059Z,26.58
2023-03-01T08:11:51.784Z,21.35
2023-03-01T08:14:58.300Z,25.35
2023-03-01T08:18:03.461Z,20.57
2023-03-01T08:21:09.150Z,23.80
2023-03-01T08:24:16.798Z,24.60
2023-03-01T08:27:23.997Z,22.20
2023-03-01T08:30:33.041Z,30.55
2023-03-01T08:33:39.413Z,27.50
2023-03-01T08:36:44.569Z,22.52
2023-03-01T08:39:50.411Z,24.05
2023-03-01T08:42:53.869Z,24.98
2023-03-01T08:46:01.182Z,22.75
2023-03-01T08:49:06.115Z,25.23
2023-03-01T08:52:09.444Z,26.75
2023-03-01T08:55:15.963Z,22.30
2023-03-01T08:58:20.951Z,26.45
2023-03-01T09:01:26.505Z,26.00
2023-03-01T09:04:35.142Z,25.03
2023-03-01T09:07:38.442Z,21.65
2023-03-01T09:10:43.412Z,24.02
2023-03-01T09:13:52.439Z,21.35
2023-03-01T09:16:57.482Z,23.42
2023-03-01T09:20:00.775Z,25.80
2023-03-01T09:23:04.305Z,26.77
2023-03-01T09:26:09.961Z,25.33
2023-03-01T09:29:13.208Z,27.42
2023-03-01T09:32:16.505Z,23.25
2023-03-01T09:35:21.115Z,20.13
2023-03-01T09:38:29.707Z,29.50
2023-03-01T09:41:56.241Z,24.27
2023-03-01T09:45:04.036Z,25.45
2023-03-01T09:48:15.118Z,26.42
2023-03-01T09:51:26.972Z,27.90
2023-03-01T09:54:30.862Z,27.05
2023-03-01T09:57:50.161Z,21.92
2023-03-01T10:00:58.432Z,26.48
2023-03-01T10:04:27.431Z,24.90
2023-03-01T10:07:40.368Z,26.83
2023-03-01T10:10:47.311Z,27.88
2023-03-01T10:14:01.600Z,22.63
2023-03-01T10:17:13.595Z,24.98
2023-03-01T10:20:23.960Z,27.88
2023-03-01T10:23:29.362Z,24.97
2023-03-01T10:26:49.332Z,24.35
2023-03-01T10:30:03.975Z,22.63
2023-03-01T10:33:19.179Z,26.08
2023-03-01T10:36:22.339Z,22.48
2023-03-01T10:39:28.069Z,25.10
2023-03-01T10:42:52.538Z,22.48
2023-03-01T10:45:58.532Z,24.13
2023-03-01T10:49:34.714Z,21.58
2023-03-01T10:52:43.612Z,24.58
2023-03-01T10:55:47.136Z,21.07
2023-03-01T10:58:59.927Z,21.83
2023-03-01T11:02:25.347Z,24.67
2023-03-01T11:05:29.539Z,23.92
2023-03-01T11:08:38.714Z,23.02
2023-03-01T11:11:42.621Z,26.17
2023-03-01T11:14:50.295Z,24.85
2023-03-01T11:18:31.048Z,25.40
2023-03-01T11:21:44.195Z,26.35
2023-03-01T11:24:54.778Z,21.77
2023-03-01T11:28:10.142Z,20.40
2023-03-01T11:31:15.985Z,22.25
2023-03-01T11:34:30.288Z,22.42
2023-03-01T11:37:40.076Z,24.10
2023-03-01T11:40:49.811Z,23.60
2023-03-01T11:43:59.195Z,23.33
2023-03-01T11:47:35.603Z,23.35
2023-03-01T11:50:57.187Z,22.17
2023-03-01T11:54:14.204Z,23.83
2023-03-01T11:57:26.849Z,23.58
2023-03-01T12:00:53.970Z,24.67
2023-03-01T12:04:34.238Z,24.45
2023-03-01T12:07:47.393Z,23.95
2023-03-01T12:10:59.421Z,25.45
2023-03-01T12:14:21.713Z,22.48
2023-03-01T12:17:49.376Z,21.57
2023-03-01T12:21:06.096Z,26.60
2023-03-01T12:24:36.297Z,21.50
2023-03-01T12:28:00.339Z,21.92
2023-03-01T12:31:32.346Z,24.08
2023-03-01T12:34:57.011Z,19.93
2023-03-01T12:38:19.977Z,22.65
2023-03-01T12:41:45.740Z,20.35
2023-03-01T12:45:02.768Z,22.50
2023-03-01T12:48:25.238Z,22.90
2023-03-01T12:51:33.143Z,18.00
2023-03-01T12:54:38.737Z,21.65
2023-03-01T12:57:49.671Z,20.05
2023-03-01T13:01:23.957Z,20.27
2023-03-01T13:04:38.335Z,17.50
2023-03-01T13:07:53.244Z,17.10
2023-03-01T13:11:02.548Z,17.58
2023-03-01T13:14:53.578Z,17.58
2023-03-01T13:17:59.946Z,17.50
2023-03-01T13:21:06.681Z,18.40
2023-03-01T13:24:26.963Z,17.77
2023-03-01T13:27:31.521Z,19.23
2023-03-01T13:30:44.187Z,19.25
2023-03-01T13:33:50.194Z,15.82
2023-03-01T13:36:53.469Z,15.82
2023-03-01T13:40:19.876Z,18.40
2023-03-01T13:43:34.543Z,18.60
2023-03-01T13:46:38.724Z,17.52
2023-03-01T13:50:05.713Z,20.23
2023-03-01T13:53:13.864Z,19.95
2023-03-01T13:56:20.517Z,15.60
2023-03-01T13:59:39.143Z,17.00
2023-03-01T14:02:45.032Z,15.40
2023-03-01T14:06:14.713Z,21.88
2023-03-01T14:09:25.098Z,19.33
2023-03-01T14:12:40.851Z,16.77
2023-03-01T14:15:52.741Z,20.65
2023-03-01T14:19:08.139Z,28.00
2023-03-01T14:22:21.508Z,17.58
2023-03-01T14:25:31.035Z,18.65
2023-03-01T14:28:40.740Z,16.67
2023-03-01T14:31:53.280Z,15.75
2023-03-01T14:35:01.756Z,15.60
2023-03-01T14:38:06.513Z,16.17
2023-03-01T14:41:13.765Z,15.63
2023-03-01T14:44:23.990Z,15.60
2023-03-01T14:47:30.788Z,17.08
2023-03-01T14:50:42.264Z,17.25
2023-03-01T14:53:51.221Z,12.68
2023-03-01T14:56:56.242Z,15.18
2023-03-01T15:00:06.082Z,15.83
2023-03-01T15:03:16.728Z,15.85
2023-03-01T15:06:24.234Z,20.13
2023-03-01T15:09:29.190Z,16.98
2023-03-01T15:12:41.428Z,13.63
2023-03-01T15:15:48.004Z,14.20
2023-03-01T15:18:53.150Z,13.30
2023-03-01T15:21:56.518Z,14.00
2023-03-01T15:25:01.321Z,16.17
2023-03-01T15:28:05.061Z,14.77
2023-03-01T15:31:24.405Z,14.73
2023-03-01T15:34:29.767Z,14.68
2023-03-01T15:37:45.619Z,13.50
2023-03-01T15:40:52.963Z,18.38
2023-03-01T15:43:57.541Z,14.93
2023-03-01T15:47:01.613Z,17.77
2023-03-01T15:50:05.514Z,15.10
2023-03-01T15:53:15.478Z,16.23
2023-03-01T15:56:20.100Z,14.80
2023-03-01T15:59:25.718Z,16.42
2023-03-01T16:02:29.104Z,24.07
2023-03-01T16:05:35.648Z,27.00
2023-03-01T16:08:38.955Z,17.02
2023-03-01T16:11:44.088Z,21.50
2023-03-01T16:14:49.777Z,18.08
2023-03-01T16:17:54.178Z,15.27
2023-03-01T16:20:58.927Z,19.55
2023-03-01T16:24:02.090Z,17.05
2023-03-01T16:27:06.585Z,20.08
2023-03-01T16:30:11.582Z,19.92
2023-03-01T16:33:27.304Z,24.50
2023-03-01T16:36:37.710Z,20.60
2023-03-01T16:39:41.034Z,20.73
2023-03-01T16:42:46.049Z,28.38
